Wetterdaten: Woche 10.11.08 - 16.11.08 (KW46)
Datum Zeit Temperatur Luftfeuchte Luftdruck Niederschlag Windrichtung Wind
10.11.2008 00:00 8,9 C 82 % 1025,3 hPa 0,0 l/m SW 12,6 km/h (3 Bft)
10.11.2008 01:00 8,9 C 81 % 1025,0 hPa 0,0 l/m SW 15,8 km/h (3 Bft)
10.11.2008 02:00 8,9 C 78 % 1024,8 hPa 0,0 l/m SW 18,8 km/h (3 Bft)
10.11.2008 03:00 8,2 C 80 % 1024,4 hPa 0,0 l/m SW 12,6 km/h (3 Bft)
10.11.2008 04:00 7,7 C 83 % 1024,2 hPa 0,0 l/m SW 13,7 km/h (3 Bft)
10.11.2008 05:00 8,0 C 80 % 1024,3 hPa 0,0 l/m SW 11,8 km/h (2 Bft)
10.11.2008 06:00 6,7 C 84 % 1024,5 hPa 0,0 l/m SW 8,6 km/h (2 Bft)
10.11.2008 07:00 6,4 C 86 % 1024,7 hPa 0,0 l/m SW 13,4 km/h (3 Bft)
10.11.2008 08:00 6,5 C 86 % 1025,2 hPa 0,0 l/m SW 16,4 km/h (3 Bft)
10.11.2008 09:00 8,6 C 79 % 1025,4 hPa 0,0 l/m W-SW 22,5 km/h (4 Bft)
10.11.2008 10:00 10,7 C 73 % 1025,4 hPa 0,0 l/m SW 23,3 km/h (4 Bft)
10.11.2008 11:00 12,3 C 65 % 1024,9 hPa 0,0 l/m SW 22,4 km/h (4 Bft)
10.11.2008 12:00 13,4 C 62 % 1023,8 hPa 0,0 l/m W-SW 21,6 km/h (4 Bft)
10.11.2008 13:00 14,3 C 57 % 1023,0 hPa 0,0 l/m SW 18,5 km/h (3 Bft)
10.11.2008 14:00 14,0 C 54 % 1022,4 hPa 0,0 l/m W 16,2 km/h (3 Bft)
10.11.2008 15:00 13,3 C 57 % 1021,9 hPa 0,0 l/m SW 10,6 km/h (2 Bft)
10.11.2008 16:00 12,4 C 61 % 1021,7 hPa 0,0 l/m SW 8,4 km/h (2 Bft)
10.11.2008 17:00 10,9 C 67 % 1021,7 hPa 0,0 l/m SW 11,3 km/h (2 Bft)
10.11.2008 18:00 11,0 C 67 % 1021,7 hPa 0,0 l/m SW 15,2 km/h (3 Bft)
10.11.2008 19:00 10,2 C 71 % 1021,7 hPa 0,0 l/m S-SO 9,8 km/h (2 Bft)
10.11.2008 20:00 8,3 C 79 % 1021,3 hPa 0,0 l/m SW 7,5 km/h (2 Bft)
10.11.2008 21:00 6,9 C 84 % 1020,8 hPa 0,0 l/m SW 4,7 km/h (1 Bft)
10.11.2008 22:00 6,4 C 87 % 1020,5 hPa 0,0 l/m S 4,7 km/h (1 Bft)
10.11.2008 23:00 5,8 C 87 % 1020,1 hPa 0,0 l/m SW 2,7 km/h (1 Bft)
11.11.2008 00:00 5,0 C 89 % 1019,4 hPa 0,0 l/m N 0,8 km/h (0 Bft)
11.11.2008 01:00 4,4 C 91 % 1018,5 hPa 0,0 l/m O-SO 2,0 km/h (1 Bft)
11.11.2008 02:00 4,2 C 92 % 1017,9 hPa 0,0 l/m SW 4,5 km/h (1 Bft)
11.11.2008 03:00 4,0 C 92 % 1016,9 hPa 0,0 l/m S-SW 6,3 km/h (2 Bft)
11.11.2008 04:00 3,9 C 91 % 1016,5 hPa 0,0 l/m SO 1,1 km/h (0 Bft)
11.11.2008 05:00 3,0 C 91 % 1016,5 hPa 0,0 l/m N 0,3 km/h (0 Bft)
11.11.2008 06:00 2,3 C 93 % 1016,3 hPa 0,0 l/m N 0,5 km/h (0 Bft)
11.11.2008 07:00 2,2 C 95 % 1016,5 hPa 0,0 l/m SW 9,1 km/h (2 Bft)
11.11.2008 08:00 5,4 C 87 % 1017,1 hPa 0,0 l/m SW 18,2 km/h (3 Bft)
11.11.2008 09:00 6,3 C 87 % 1017,3 hPa 0,0 l/m SW 13,3 km/h (3 Bft)
11.11.2008 10:00 9,2 C 78 % 1017,1 hPa 0,0 l/m S-SW 16,9 km/h (3 Bft)
11.11.2008 11:00 12,9 C 57 % 1016,6 hPa 0,0 l/m SW 23,9 km/h (4 Bft)
11.11.2008 12:00 13,3 C 54 % 1016,0 hPa 0,0 l/m W-SW 26,3 km/h (4 Bft)
11.11.2008 13:00 13,3 C 59 % 1015,7 hPa 0,0 l/m W-SW 25,5 km/h (4 Bft)
11.11.2008 14:00 13,4 C 61 % 1015,5 hPa 0,0 l/m W 22,9 km/h (4 Bft)
11.11.2008 15:00 12,9 C 65 % 1016,2 hPa 0,0 l/m W 19,7 km/h (3 Bft)
11.11.2008 16:00 11,8 C 76 % 1017,2 hPa 0,0 l/m W 18,5 km/h (3 Bft)
11.11.2008 17:00 10,7 C 83 % 1017,7 hPa 0,0 l/m W 13,0 km/h (3 Bft)
11.11.2008 18:00 10,0 C 86 % 1018,0 hPa 0,0 l/m SW 11,4 km/h (2 Bft)
11.11.2008 19:00 9,0 C 88 % 1018,2 hPa 0,0 l/m SW 18,5 km/h (3 Bft)
11.11.2008 20:00 7,9 C 90 % 1018,4 hPa 0,0 l/m S-SW 14,5 km/h (3 Bft)
11.11.2008 21:00 7,2 C 93 % 1018,5 hPa 0,0 l/m SW 9,4 km/h (2 Bft)
11.11.2008 22:00 7,1 C 93 % 1018,3 hPa 0,0 l/m S-SW 5,3 km/h (1 Bft)
11.11.2008 23:00 6,9 C 93 % 1018,3 hPa 0,0 l/m S-SW 4,1 km/h (1 Bft)
12.11.2008 00:00 6,8 C 94 % 1018,3 hPa 0,0 l/m N 1,9 km/h (1 Bft)
12.11.2008 01:00 6,6 C 93 % 1018,0 hPa 0,0 l/m N 0,0 km/h (0 Bft)
12.11.2008 02:00 6,3 C 94 % 1017,8 hPa 0,0 l/m N 0,1 km/h (0 Bft)
12.11.2008 03:00 6,1 C 95 % 1017,8 hPa 0,0 l/m N 0,0 km/h (0 Bft)
12.11.2008 04:00 6,0 C 94 % 1017,7 hPa 0,0 l/m N 1,5 km/h (1 Bft)
12.11.2008 05:00 5,9 C 93 % 1018,0 hPa 0,0 l/m N 0,1 km/h (0 Bft)
12.11.2008 06:00 5,7 C 94 % 1018,5 hPa 0,2 l/m S-SW 3,2 km/h (1 Bft)
12.11.2008 07:00 5,7 C 92 % 1018,7 hPa 0,2 l/m SW 5,7 km/h (1 Bft)
12.11.2008 08:00 5,6 C 92 % 1019,3 hPa 0,0 l/m SW 7,1 km/h (2 Bft)
12.11.2008 09:00 5,6 C 90 % 1019,3 hPa 0,2 l/m SW 10,2 km/h (2 Bft)
12.11.2008 10:00 5,8 C 91 % 1019,4 hPa 0,0 l/m S 8,4 km/h (2 Bft)
12.11.2008 11:00 6,6 C 86 % 1019,2 hPa 0,0 l/m S 7,6 km/h (2 Bft)
12.11.2008 12:00 7,0 C 84 % 1019,0 hPa 0,0 l/m S-SW 7,6 km/h (2 Bft)
12.11.2008 13:00 7,4 C 82 % 1018,5 hPa 0,0 l/m S-SW 6,8 km/h (2 Bft)
12.11.2008 14:00 7,5 C 82 % 1018,5 hPa 0,0 l/m S-SO 6,7 km/h (2 Bft)
12.11.2008 15:00 7,5 C 81 % 1018,5 hPa 0,0 l/m S 5,9 km/h (2 Bft)
12.11.2008 16:00 7,1 C 83 % 1018,7 hPa 0,0 l/m S-SW 2,4 km/h (1 Bft)
12.11.2008 17:00 6,6 C 87 % 1018,8 hPa 0,0 l/m N 0,7 km/h (0 Bft)
12.11.2008 18:00 5,9 C 89 % 1019,2 hPa 0,0 l/m N 0,0 km/h (0 Bft)
12.11.2008 19:00 5,3 C 91 % 1019,4 hPa 0,0 l/m N 0,0 km/h (0 Bft)
12.11.2008 20:00 5,1 C 92 % 1019,6 hPa 0,0 l/m N 0,1 km/h (0 Bft)
12.11.2008 21:00 4,8 C 93 % 1020,1 hPa 0,0 l/m N-NW 2,3 km/h (1 Bft)
12.11.2008 22:00 4,6 C 93 % 1020,4 hPa 0,0 l/m N 0,1 km/h (0 Bft)
12.11.2008 23:00 4,3 C 94 % 1020,5 hPa 0,0 l/m N 0,0 km/h (0 Bft)
13.11.2008 00:00 4,3 C 95 % 1020,8 hPa 0,0 l/m N 0,1 km/h (0 Bft)
13.11.2008 01:00 4,1 C 95 % 1020,6 hPa 0,0 l/m N 0,5 km/h (0 Bft)
13.11.2008 02:00 3,9 C 96 % 1020,9 hPa 0,0 l/m N 0,1 km/h (0 Bft)
13.11.2008 03:00 3,9 C 96 % 1020,9 hPa 0,0 l/m N 1,2 km/h (1 Bft)
13.11.2008 04:00 3,9 C 96 % 1021,0 hPa 0,0 l/m N-NW 4,0 km/h (1 Bft)
13.11.2008 05:00 4,0 C 96 % 1021,3 hPa 0,0 l/m N-NW 4,5 km/h (1 Bft)
13.11.2008 06:00 4,0 C 96 % 1021,7 hPa 0,0 l/m N-NW 3,1 km/h (1 Bft)
13.11.2008 07:00 4,1 C 96 % 1022,0 hPa 0,0 l/m N 1,1 km/h (0 Bft)
13.11.2008 08:00 4,3 C 97 % 1022,7 hPa 0,0 l/m N 2,1 km/h (1 Bft)
13.11.2008 09:00 4,8 C 96 % 1023,1 hPa 0,0 l/m N-NO 6,1 km/h (2 Bft)
13.11.2008 10:00 5,3 C 95 % 1023,6 hPa 0,0 l/m N-NO 7,5 km/h (2 Bft)
13.11.2008 11:00 5,6 C 93 % 1023,5 hPa 0,0 l/m O-NO 10,6 km/h (2 Bft)
13.11.2008 12:00 6,2 C 91 % 1023,3 hPa 0,0 l/m O-NO 8,6 km/h (2 Bft)
13.11.2008 13:00 6,3 C 88 % 1023,2 hPa 0,0 l/m O-NO 9,8 km/h (2 Bft)
13.11.2008 14:00 6,2 C 88 % 1023,4 hPa 0,0 l/m NO 9,9 km/h (2 Bft)
13.11.2008 15:00 6,1 C 89 % 1023,7 hPa 0,0 l/m NO 8,6 km/h (2 Bft)
13.11.2008 16:00 5,9 C 89 % 1024,0 hPa 0,0 l/m O-NO 9,0 km/h (2 Bft)
13.11.2008 17:00 5,8 C 90 % 1024,7 hPa 0,0 l/m NO 5,1 km/h (1 Bft)
13.11.2008 18:00 5,5 C 92 % 1025,3 hPa 0,0 l/m NO 4,8 km/h (1 Bft)
13.11.2008 19:00 5,3 C 94 % 1025,6 hPa 0,0 l/m N-NO 4,4 km/h (1 Bft)
13.11.2008 20:00 5,3 C 94 % 1025,8 hPa 0,0 l/m NO 5,2 km/h (1 Bft)
13.11.2008 21:00 5,6 C 93 % 1026,1 hPa 0,0 l/m NO 11,0 km/h (2 Bft)
13.11.2008 22:00 5,5 C 92 % 1026,1 hPa 0,0 l/m O-NO 11,6 km/h (2 Bft)
13.11.2008 23:00 5,3 C 92 % 1026,0 hPa 0,0 l/m N-NO 7,2 km/h (2 Bft)
14.11.2008 00:00 5,1 C 93 % 1026,1 hPa 0,0 l/m N-NO 7,2 km/h (2 Bft)
14.11.2008 01:00 4,9 C 93 % 1026,1 hPa 0,0 l/m NO 7,5 km/h (2 Bft)
14.11.2008 02:00 4,8 C 93 % 1026,2 hPa 0,0 l/m N-NO 7,5 km/h (2 Bft)
14.11.2008 03:00 4,5 C 93 % 1026,3 hPa 0,0 l/m N-NO 7,2 km/h (2 Bft)
14.11.2008 04:00 4,3 C 92 % 1026,3 hPa 0,0 l/m N-NO 6,4 km/h (2 Bft)
14.11.2008 05:00 4,1 C 92 % 1026,8 hPa 0,0 l/m N-NO 5,5 km/h (1 Bft)
14.11.2008 06:00 4,1 C 93 % 1027,0 hPa 0,0 l/m N-NO 4,0 km/h (1 Bft)
14.11.2008 07:00 4,1 C 94 % 1026,9 hPa 0,0 l/m N-NO 4,7 km/h (1 Bft)
14.11.2008 08:00 4,2 C 94 % 1027,3 hPa 0,0 l/m N 4,5 km/h (1 Bft)
14.11.2008 09:00 4,6 C 93 % 1027,8 hPa 0,0 l/m N-NO 7,3 km/h (2 Bft)
14.11.2008 10:00 5,2 C 91 % 1027,9 hPa 0,0 l/m NO 6,7 km/h (2 Bft)
14.11.2008 11:00 5,8 C 88 % 1027,9 hPa 0,0 l/m NO 4,5 km/h (1 Bft)
14.11.2008 12:00 6,4 C 85 % 1027,3 hPa 0,0 l/m SO 6,8 km/h (2 Bft)
14.11.2008 13:00 6,9 C 81 % 1027,2 hPa 0,0 l/m O-NO 5,1 km/h (1 Bft)
14.11.2008 14:00 6,9 C 80 % 1027,3 hPa 0,0 l/m O-NO 5,3 km/h (1 Bft)
14.11.2008 15:00 6,8 C 80 % 1027,4 hPa 0,0 l/m NO 5,5 km/h (1 Bft)
14.11.2008 16:00 6,6 C 83 % 1027,8 hPa 0,0 l/m N-NO 4,1 km/h (1 Bft)
14.11.2008 17:00 6,3 C 84 % 1027,9 hPa 0,0 l/m SO 2,0 km/h (1 Bft)
14.11.2008 18:00 6,2 C 82 % 1028,3 hPa 0,0 l/m O-NO 2,1 km/h (1 Bft)
14.11.2008 19:00 6,0 C 83 % 1028,5 hPa 0,0 l/m N 1,5 km/h (1 Bft)
14.11.2008 20:00 5,2 C 83 % 1028,5 hPa 0,0 l/m N 1,5 km/h (1 Bft)
14.11.2008 21:00 3,9 C 85 % 1028,6 hPa 0,0 l/m N-NO 2,3 km/h (1 Bft)
14.11.2008 22:00 2,4 C 88 % 1028,7 hPa 0,0 l/m N 1,5 km/h (1 Bft)
14.11.2008 23:00 1,4 C 91 % 1028,5 hPa 0,0 l/m N 1,1 km/h (0 Bft)
15.11.2008 00:00 0,8 C 92 % 1028,7 hPa 0,0 l/m N 0,3 km/h (0 Bft)
15.11.2008 01:00 0,2 C 93 % 1028,6 hPa 0,0 l/m N 0,1 km/h (0 Bft)
15.11.2008 02:00 -0,2 C 94 % 1028,7 hPa 0,0 l/m N 2,1 km/h (1 Bft)
15.11.2008 03:00 -0,5 C 95 % 1028,7 hPa 0,0 l/m N 0,4 km/h (0 Bft)
15.11.2008 04:00 -0,8 C 95 % 1028,8 hPa 0,0 l/m N-NW 2,5 km/h (1 Bft)
15.11.2008 05:00 -1,0 C 95 % 1028,8 hPa 0,0 l/m N 0,1 km/h (0 Bft)
15.11.2008 06:00 -1,3 C 94 % 1028,9 hPa 0,0 l/m N 0,0 km/h (0 Bft)
15.11.2008 07:00 -1,7 C 94 % 1029,1 hPa 0,0 l/m N-NO 2,1 km/h (1 Bft)
15.11.2008 08:00 -1,3 C 97 % 1029,5 hPa 0,0 l/m N-NW 5,2 km/h (1 Bft)
15.11.2008 09:00 0,1 C 98 % 1029,8 hPa 0,0 l/m N-NW 5,6 km/h (1 Bft)
15.11.2008 10:00 1,8 C 97 % 1030,0 hPa 0,0 l/m N-NO 2,9 km/h (1 Bft)
15.11.2008 11:00 4,2 C 89 % 1029,8 hPa 0,0 l/m N-NO 3,6 km/h (1 Bft)
15.11.2008 12:00 7,0 C 77 % 1029,3 hPa 0,0 l/m NO 5,6 km/h (1 Bft)
15.11.2008 13:00 8,1 C 72 % 1028,8 hPa 0,0 l/m N 6,5 km/h (2 Bft)
15.11.2008 14:00 8,7 C 66 % 1028,3 hPa 0,0 l/m O 6,4 km/h (2 Bft)
15.11.2008 15:00 8,5 C 66 % 1028,4 hPa 0,0 l/m N-NO 5,9 km/h (2 Bft)
15.11.2008 16:00 7,8 C 70 % 1028,4 hPa 0,0 l/m N 2,3 km/h (1 Bft)
15.11.2008 17:00 5,7 C 78 % 1028,5 hPa 0,0 l/m N 0,4 km/h (0 Bft)
15.11.2008 18:00 3,8 C 84 % 1028,9 hPa 0,0 l/m N 0,0 km/h (0 Bft)
15.11.2008 19:00 2,6 C 88 % 1029,0 hPa 0,0 l/m N 0,5 km/h (0 Bft)
15.11.2008 20:00 1,7 C 90 % 1029,1 hPa 0,0 l/m NO 0,9 km/h (0 Bft)
15.11.2008 21:00 1,0 C 91 % 1029,5 hPa 0,0 l/m N 0,1 km/h (0 Bft)
15.11.2008 22:00 0,4 C 93 % 1029,5 hPa 0,0 l/m N 0,0 km/h (0 Bft)
15.11.2008 23:00 -0,2 C 94 % 1029,4 hPa 0,0 l/m N 0,8 km/h (0 Bft)
16.11.2008 00:00 -0,6 C 96 % 1029,6 hPa 0,0 l/m N 0,5 km/h (0 Bft)
16.11.2008 01:00 -0,8 C 97 % 1029,6 hPa 0,0 l/m NO 1,7 km/h (1 Bft)
16.11.2008 02:00 -0,2 C 98 % 1029,7 hPa 0,0 l/m N-NW 2,3 km/h (1 Bft)
16.11.2008 03:00 0,2 C 98 % 1029,6 hPa 0,0 l/m N 1,2 km/h (1 Bft)
16.11.2008 04:00 0,6 C 98 % 1029,7 hPa 0,0 l/m N 1,1 km/h (0 Bft)
16.11.2008 05:00 1,1 C 98 % 1029,7 hPa 0,0 l/m SW 2,1 km/h (1 Bft)
16.11.2008 06:00 1,8 C 99 % 1029,7 hPa 0,0 l/m SW 5,9 km/h (2 Bft)
16.11.2008 07:00 1,9 C 99 % 1029,7 hPa 0,0 l/m SW 6,3 km/h (2 Bft)
16.11.2008 08:00 2,0 C 99 % 1030,2 hPa 0,0 l/m S-SW 4,4 km/h (1 Bft)
16.11.2008 09:00 2,1 C 99 % 1030,2 hPa 0,0 l/m S-SW 8,7 km/h (2 Bft)
16.11.2008 10:00 2,5 C 98 % 1030,3 hPa 0,0 l/m S-SW 10,2 km/h (2 Bft)
16.11.2008 11:00 3,4 C 98 % 1029,8 hPa 0,0 l/m SW 15,4 km/h (3 Bft)
16.11.2008 12:00 3,7 C 97 % 1029,4 hPa 0,0 l/m SW 12,5 km/h (3 Bft)
16.11.2008 13:00 4,1 C 98 % 1028,8 hPa 0,0 l/m SW 15,8 km/h (3 Bft)
16.11.2008 14:00 4,2 C 97 % 1029,0 hPa 0,0 l/m W-SW 15,0 km/h (3 Bft)
16.11.2008 15:00 4,1 C 97 % 1029,0 hPa 0,0 l/m SW 21,0 km/h (4 Bft)
16.11.2008 16:00 3,9 C 97 % 1029,2 hPa 0,0 l/m SW 19,7 km/h (3 Bft)
16.11.2008 17:00 3,6 C 98 % 1029,2 hPa 0,0 l/m S-SW 20,1 km/h (4 Bft)
16.11.2008 18:00 3,7 C 98 % 1029,4 hPa 0,0 l/m SW 13,0 km/h (3 Bft)
16.11.2008 19:00 4,0 C 99 % 1029,5 hPa 0,0 l/m SW 9,7 km/h (2 Bft)
16.11.2008 20:00 4,3 C 99 % 1029,4 hPa 0,0 l/m SW 11,3 km/h (2 Bft)
16.11.2008 21:00 4,5 C 98 % 1029,5 hPa 0,2 l/m S 11,0 km/h (2 Bft)
16.11.2008 22:00 4,5 C 98 % 1029,3 hPa 0,6 l/m S 11,8 km/h (2 Bft)
16.11.2008 23:00 4,7 C 98 % 1029,2 hPa 0,4 l/m S-SW 8,4 km/h (2 Bft)
Min-Datum _ 15.11.08 11.11.08 11.11.08 - - 10.11.08
_ Min-Zeit 07:35 11:45 13:30 - - 23:15
Minimum _ -1,8 C 52 % 1015,4 hPa - - 0,0 km/h (0 Bft)
Max-Datum _ 10.11.08 15.11.08 16.11.08 16.11.08 - 11.11.08
_ Max-Zeit 13:15 03:40 09:00 22:00 - 11:30
Maximum _ 14,4 C 100 % 1030,4 hPa 0,6 l/m - 40,2 km/h
SW (6 Bft)
Durchschnitt _ 5,5 C 88 % 1024,1 hPa #1,8 l/m SW 7,3 km/h (2 Bft)